Date,TemperatureHighF,TemperatureAvgF,TemperatureLowF,DewpointHighF,DewpointAvgF,DewpointLowF,HumidityHigh,HumidityAvg,HumidityLow,PressureMaxIn,PressureMinIn,WindSpeedMaxMPH,WindSpeedAvgMPH,GustSpeedMaxMPH,PrecipitationSumIn
2013-1-9,29.7,27.1,24.6,21.8,19.3,17.1,74,72,71,30.16,29.87,4,0,11,0.03
2013-1-20,28.9,23.9,18.5,15.9,4.4,-8.9,63,43,27,29.67,29.51,11,5,19,0.14
2013-1-21,26.6,17.1,10.0,9.4,1.3,-10.2,76,52,24,29.79,29.53,8,2,11,0.00
2013-1-22,29.3,10.8,3.4,7.3,-3.9,-17.0,72,52,25,29.82,29.52,11,2,16,0.00
2013-1-23,15.1,0.8,-9.0,-9.9,-19.0,-26.1,54,36,21,29.93,29.80,8,1,11,0.00
2013-1-24,20.3,1.6,-12.1,-9.6,-17.8,-21.4,56,37,21,30.08,29.89,5,1,8,0.00
2013-1-25,15.6,6.2,-4.0,-3.3,-13.4,-21.5,57,38,23,30.13,29.83,6,2,11,0.00
2013-1-26,23.7,10.0,2.3,-0.7,-5.1,-9.9,68,50,25,30.03,29.82,5,1,8,0.00
2013-1-27,29.7,11.5,-0.2,1.2,-4.8,-9.4,66,48,21,30.25,30.03,4,1,5,0.00
2013-1-28,22.3,16.1,6.8,17.6,7.7,-5.6,82,69,49,30.20,29.70,7,2,10,0.00
2013-1-29,33.4,27.6,21.0,30.2,22.6,16.6,91,82,67,30.01,29.71,9,2,11,0.56
2013-1-30,54.0,44.2,32.5,52.0,42.1,30.2,96,92,87,29.71,29.00,13,7,22,0.26
2013-1-31,53.6,38.9,23.2,52.0,26.4,5.0,96,63,31,29.30,28.55,20,8,30,0.48
2013-2-1,27.5,20.8,16.0,10.2,1.3,-6.3,59,42,25,29.84,29.30,12,4,21,0.02
2013-2-2,21.2,15.7,8.2,10.9,3.8,-3.1,75,59,41,29.92,29.75,17,4,20,0.00
2013-2-3,33.4,19.6,7.7,11.1,4.8,-2.3,75,54,27,29.76,29.48,5,1,8,0.00
2013-2-4,28.9,19.5,12.7,7.5,-2.6,-12.8,65,39,20,29.65,29.46,14,4,27,0.05
2013-2-5,31.3,15.4,1.9,1.2,-6.0,-11.9,49,38,21,29.77,29.62,6,1,8,0.00
2013-2-6,31.6,18.6,9.5,11.6,-2.2,-13.3,66,40,21,30.11,29.60,9,3,17,0.00
2013-2-7,21.2,10.9,4.8,-1.9,-8.6,-15.6,54,39,23,30.33,30.11,6,2,11,0.00
2013-2-8,21.9,17.0,11.1,16.7,8.7,-2.0,80,69,54,30.15,29.62,7,2,13,0.00
2013-2-9,20.8,12.3,2.8,11.8,-3.5,-13.7,74,49,25,30.10,29.62,11,5,18,0.00
2013-2-10,31.5,13.0,-3.5,-0.3,-7.1,-13.0,62,41,21,30.23,29.99,8,3,11,0.00
2013-2-11,39.2,28.3,16.0,33.7,16.8,-4.4,87,64,35,30.00,29.35,14,5,21,0.07
2013-2-12,44.6,36.6,32.9,29.0,23.0,16.5,66,58,46,29.59,29.34,12,5,20,0.01
2013-2-13,41.9,33.2,27.5,24.0,18.6,15.1,65,55,45,29.58,29.47,9,3,14,0.00
2013-2-14,45.0,32.8,25.3,22.9,18.4,13.1,76,57,28,29.66,29.47,6,2,9,0.00
2013-2-15,46.9,36.9,30.6,28.1,23.1,15.3,82,59,30,29.71,29.58,14,6,20,0.00
2013-2-16,35.4,28.1,19.4,19.2,10.1,0.1,64,47,36,29.73,29.62,6,3,11,0.00
2013-2-17,23.7,15.2,10.0,2.0,-4.4,-12.3,53,40,24,29.63,29.39,10,4,16,0.00
2013-2-18,37.4,18.9,5.9,0.3,-7.9,-13.5,43,29,20,29.88,29.61,7,2,9,0.00
2013-2-19,43.0,28.5,15.4,29.4,12.2,-11.8,88,54,25,29.87,29.33,17,4,24,0.03
2013-2-20,35.1,28.4,23.4,28.8,12.0,2.7,87,51,32,29.51,29.33,14,4,23,0.01
2013-2-21,32.2,20.3,12.4,13.3,4.9,-2.0,76,52,27,30.13,29.50,10,2,15,0.00
2013-2-22,44.2,29.3,17.1,22.5,16.8,10.4,79,61,37,30.16,29.96,5,1,7,0.02
2013-2-23,35.6,32.2,29.3,29.2,24.7,19.3,88,74,61,29.96,29.62,8,3,11,0.00
2013-2-24,36.5,32.3,28.4,31.5,28.5,25.0,88,86,79,29.69,29.50,4,0,7,0.00
2013-2-25,47.7,33.3,28.9,32.0,27.3,25.4,88,79,51,29.98,29.69,2,0,4,0.00
2013-2-26,51.8,36.3,30.0,33.0,27.3,22.1,87,71,45,30.05,29.82,12,2,16,0.00
2013-2-27,37.0,34.4,31.3,31.2,27.2,21.1,86,75,54,29.82,29.36,16,3,20,0.00
2013-2-28,50.4,34.0,30.9,31.7,28.4,26.5,86,80,48,29.36,29.28,4,1,7,0.00
2013-3-1,39.4,32.9,30.9,29.0,25.8,23.5,85,75,61,29.50,29.34,8,3,14,0.00
2013-3-2,34.9,29.7,23.0,25.0,21.8,16.9,82,73,56,29.51,29.45,8,3,11,0.00
2013-3-3,36.5,27.5,21.9,20.9,18.1,16.1,79,68,46,29.49,29.41,3,1,4,0.00
2013-3-4,40.8,28.3,23.4,20.8,16.2,12.6,75,61,41,29.63,29.43,5,1,9,0.00
2013-3-5,40.1,29.6,23.9,25.3,19.7,16.8,77,67,53,29.84,29.63,9,2,13,0.00
2013-3-6,42.3,34.2,25.5,31.3,23.6,17.5,83,66,48,29.91,29.81,9,2,14,0.00
2013-3-7,41.2,33.5,29.1,23.1,19.4,15.9,72,56,42,29.92,29.86,9,4,12,0.00
2013-3-8,40.5,32.2,27.9,25.1,21.4,19.0,76,64,52,30.06,29.86,14,6,21,0.00
2013-3-9,52.3,35.8,23.7,25.7,19.2,13.3,75,53,26,30.09,30.02,7,2,10,0.00
2013-3-10,55.6,40.6,25.3,26.9,19.9,14.0,67,46,25,30.07,29.87,16,6,22,0.00
2013-3-11,48.7,43.9,37.6,32.3,29.0,25.8,66,56,45,29.92,29.69,17,7,24,0.00
2013-3-12,60.8,51.0,43.9,52.9,42.2,30.8,94,75,44,29.72,29.39,11,3,14,0.00
2013-3-13,60.4,58.9,57.7,38.1,36.8,34.6,45,44,42,29.57,29.47,0,0,0,0.00
2013-3-14,57.6,56.5,55.6,34.6,31.4,28.8,42,38,35,29.64,29.47,0,0,0,0.00
2013-3-15,58.8,56.3,53.8,29.9,27.1,24.2,35,32,30,29.65,29.31,0,0,0,0.00
2013-3-16,57.9,55.6,54.0,28.2,26.5,24.8,34,32,31,29.65,29.47,0,0,0,0.00
2013-3-17,54.9,54.1,53.4,25.8,24.4,23.7,33,31,31,30.07,29.63,0,0,0,0.00
2013-3-18,56.7,54.5,53.2,25.6,23.6,20.6,32,30,27,30.17,29.83,2,0,6,0.00
2013-3-19,59.4,55.6,53.6,30.4,26.8,23.7,35,33,31,29.84,29.44,0,0,0,0.00
2013-3-20,55.8,54.8,53.4,29.2,26.7,24.8,36,34,32,29.48,29.37,0,0,0,0.00
2013-3-21,61.0,55.9,53.2,30.5,26.1,23.7,35,32,28,29.48,29.35,0,0,0,0.00
2013-3-22,58.5,55.1,53.2,30.2,26.4,-10.4,35,33,30,29.75,29.37,2,0,2,0.14
2013-3-23,59.5,55.9,53.6,31.2,27.0,23.7,35,33,31,29.56,29.42,2,0,6,0.00
2013-3-24,59.0,56.9,55.9,31.2,28.8,27.3,35,34,33,29.61,29.52,0,0,0,0.00
2013-3-25,55.8,45.7,35.4,28.6,26.6,21.5,67,49,33,29.54,29.30,8,2,12,0.00
2013-3-26,52.2,38.2,32.0,27.3,23.0,18.7,69,55,32,29.55,29.34,10,3,14,0.00
2013-3-27,56.7,41.0,31.6,30.4,25.1,18.7,68,54,32,29.67,29.52,8,3,11,0.00
2013-3-28,57.7,41.4,33.3,36.9,31.6,26.8,86,70,41,29.81,29.66,8,1,10,0.00
2013-3-29,51.1,41.7,34.7,36.5,30.8,26.3,78,66,50,29.83,29.75,6,2,8,0.00
2013-3-30,60.6,43.6,30.2,31.5,22.1,10.8,77,47,20,29.86,29.76,6,2,8,0.00
2013-3-31,57.6,42.8,28.9,40.0,24.9,15.6,97,52,26,29.84,29.46,20,7,28,0.00
2013-4-1,48.6,39.3,29.1,41.2,27.5,4.4,98,68,22,29.55,29.26,17,6,26,0.00
2013-4-2,37.2,29.9,24.1,13.6,6.6,0.6,48,37,22,29.66,29.55,18,6,28,0.00
2013-4-3,44.1,33.6,25.5,12.1,6.9,0.3,47,33,21,29.95,29.66,14,6,28,0.00
2013-4-4,55.0,39.6,25.3,21.5,14.4,8.5,55,37,21,30.02,29.65,20,6,27,0.00
2013-4-5,57.9,41.9,32.4,29.0,22.5,16.0,62,47,24,29.72,29.50,12,5,17,0.00
2013-4-6,49.5,34.4,23.4,16.0,7.8,-3.8,61,34,20,30.02,29.72,8,3,14,0.00
2013-4-7,60.3,45.2,29.3,37.8,23.0,6.4,61,43,23,29.99,29.55,25,8,34,0.00
2013-4-8,63.7,49.5,42.1,38.2,33.5,30.7,74,55,31,29.88,29.64,11,2,21,0.00
2013-4-9,44.6,42.4,40.8,42.0,38.7,33.8,94,87,68,29.76,29.53,7,1,8,0.00
2013-4-10,52.0,44.6,40.3,45.6,42.0,38.7,99,91,71,29.76,29.64,4,1,7,0.00
2013-4-11,58.5,36.1,33.3,40.9,21.4,5.9,98,57,29,29.93,29.66,11,5,17,2.00
2013-4-12,35.4,32.9,29.7,30.5,26.5,17.7,89,78,53,29.92,29.54,24,3,32,0.00
2013-4-13,61.9,41.4,33.4,38.6,33.8,30.0,91,76,53,29.70,29.52,12,4,14,2.00
2013-4-14,50.4,42.7,37.4,35.2,31.1,25.0,88,66,39,29.89,29.63,10,4,15,0.00
2013-4-15,32.5,32.5,32.5,28.0,28.0,28.0,83,83,83,30.09,30.09,3,3,4,0.00
2013-10-31,52.3,52.2,52.0,51.8,51.6,51.4,98,98,98,29.60,29.56,7,5,10,0.00
2013-11-1,71.6,61.8,53.1,63.2,56.3,47.4,99,84,51,29.38,28.97,18,7,27,0.50
2013-11-2,56.1,45.9,37.2,50.0,44.1,36.4,99,94,79,29.62,29.34,7,3,13,0.09
2013-11-3,43.2,34.4,27.0,36.4,25.9,19.0,97,72,52,30.23,29.62,7,3,13,0.00
2013-11-4,46.9,32.6,23.9,27.3,22.3,17.8,86,67,42,30.43,30.22,7,1,12,0.00
2013-11-5,53.8,39.3,26.8,40.4,31.6,20.0,87,74,59,30.39,30.16,12,4,19,0.00
2013-11-6,62.2,50.2,39.6,50.7,45.3,37.4,96,84,66,30.17,29.61,17,6,22,0.07
2013-11-7,58.3,48.9,31.3,52.8,44.8,25.2,98,86,64,29.62,29.46,14,3,19,0.12
2013-11-8,50.2,36.7,30.4,39.8,29.5,25.0,94,76,54,29.85,29.58,11,2,17,0.00
2013-11-9,46.6,37.7,27.5,36.3,29.9,23.0,95,74,56,30.12,29.65,10,2,15,19.90
2013-11-10,48.9,40.7,35.8,44.8,38.4,33.7,99,91,80,29.66,29.44,11,4,18,0.10
2013-11-11,47.1,40.7,32.4,39.3,33.7,27.6,89,76,65,29.84,29.57,11,4,17,0.00
2013-11-12,41.4,30.6,21.0,38.5,21.2,15.0,95,68,50,29.99,29.61,5,1,9,0.00
2013-11-13,46.6,29.2,17.1,25.2,18.3,11.1,80,65,33,30.07,29.79,12,2,21,0.00
2013-11-14,50.7,36.7,30.6,36.0,27.5,23.0,77,69,55,29.80,29.75,14,6,21,0.00
2013-11-15,56.7,42.9,33.6,32.2,27.5,22.9,73,55,37,29.90,29.79,13,5,19,0.00
2013-11-16,63.1,47.5,39.0,40.3,34.7,28.4,84,62,42,30.02,29.88,10,4,14,0.00
2013-11-17,53.6,47.9,39.0,52.9,45.3,34.4,99,91,80,29.98,29.39,9,4,14,0.07
2013-11-18,60.8,53.0,41.7,58.5,45.8,33.7,99,78,50,29.43,29.12,14,6,25,0.28
2013-11-19,47.5,35.0,24.3,34.5,24.9,15.4,88,67,46,30.12,29.42,11,2,17,0.00
2013-11-20,47.3,30.6,21.4,27.5,20.9,15.1,94,68,44,30.37,30.12,4,1,8,0.00
2013-11-21,44.6,31.5,19.6,29.6,24.1,19.0,99,76,46,30.37,30.07,11,4,16,0.00
2013-11-22,45.9,39.2,34.3,44.7,37.4,28.3,99,93,73,30.07,29.54,10,3,12,19.06
2013-11-23,45.5,34.2,23.2,43.0,26.9,15.8,97,75,51,29.97,29.52,11,2,17,0.00
2013-11-24,29.7,20.7,13.1,17.6,4.6,-3.7,80,50,33,29.99,29.59,11,2,24,0.00
2013-11-25,30.9,21.4,9.0,19.9,7.7,-5.0,66,55,36,30.13,29.88,13,4,19,0.00
2013-11-26,33.8,31.0,28.9,31.9,27.6,19.5,99,88,62,29.99,29.68,12,4,17,0.00
2013-11-27,36.9,34.1,32.2,36.1,33.6,31.9,99,98,97,29.69,29.11,4,1,7,0.09
2013-11-28,32.5,24.5,15.6,31.9,15.0,7.8,99,68,46,30.15,29.26,9,1,14,0.00
2013-11-29,37.4,21.6,12.7,21.4,11.7,5.3,87,67,42,30.49,30.15,4,0,7,0.00
2013-11-30,28.9,20.5,8.4,18.2,12.8,4.8,90,73,55,30.51,30.05,13,3,17,0.00
2013-12-1,38.3,32.2,28.0,34.5,28.3,18.2,99,86,66,30.04,29.75,9,2,16,0.01
2013-12-2,37.2,33.9,30.4,35.9,33.0,30.1,99,97,93,29.76,29.62,6,2,8,0.00
2013-12-3,54.9,36.7,31.1,43.1,34.3,30.2,99,91,64,29.73,29.62,4,1,6,0.00
2013-12-4,50.7,33.6,25.9,37.0,29.7,24.3,99,86,58,29.89,29.73,4,1,8,0.00
2013-12-5,53.1,41.8,28.8,52.5,40.3,27.5,99,94,85,29.87,29.56,12,5,17,0.00
2013-12-6,50.9,40.2,32.9,50.4,37.0,30.1,99,88,74,29.89,29.61,7,1,9,0.58
2013-12-7,43.2,32.0,24.8,32.1,24.3,13.8,97,74,49,30.20,29.84,6,1,11,0.00
2013-12-8,30.2,26.3,21.0,19.4,16.3,11.6,73,65,60,30.32,30.16,4,1,7,0.00
2013-12-9,34.2,29.1,24.8,33.7,26.5,17.5,99,91,64,30.16,29.57,12,4,17,0.00
2013-12-10,35.6,29.8,19.9,33.8,22.0,11.6,98,73,59,29.68,29.52,11,3,18,0.00
2013-12-11,32.7,23.4,16.5,21.0,14.5,7.6,87,69,58,29.90,29.68,14,3,20,0.00
2013-12-12,25.5,16.5,4.3,12.6,5.6,-3.8,87,63,42,30.04,29.68,11,3,16,0.00
2013-12-13,41.2,14.4,-0.8,18.4,6.4,-7.6,86,70,59,30.18,29.62,8,2,11,0.00
2013-12-14,14.9,5.9,-2.2,4.4,-2.0,-7.8,80,68,52,30.34,29.83,4,1,5,0.00
2013-12-15,27.7,20.4,9.3,23.3,16.2,4.4,95,84,68,29.83,29.26,8,1,11,0.00
2013-12-16,27.5,15.9,-3.3,17.0,4.0,-12.3,88,60,41,29.96,29.42,11,2,15,0.00
2013-12-17,45.7,-1.5,-9.4,0.1,-8.4,-15.9,73,69,61,30.19,29.77,3,1,4,22.37
2013-12-18,41.3,20.3,9.9,31.5,15.1,5.5,87,80,38,29.97,29.64,9,3,11,22.37
2013-12-19,38.3,31.7,25.3,33.0,25.9,21.5,94,79,67,29.79,29.63,12,5,21,0.01
2013-12-20,40.8,32.7,24.3,35.7,28.7,23.5,99,86,75,29.79,29.59,7,2,10,0.05
2013-12-21,44.6,32.6,24.6,42.9,31.8,24.1,99,97,89,29.69,29.51,13,2,15,0.06
2013-12-22,30.0,27.9,25.3,29.8,27.5,24.9,99,98,97,29.69,29.42,0,0,0,0.00
2013-12-23,34.2,30.8,27.7,33.7,30.1,22.9,99,97,79,29.90,29.68,0,0,0,0.03
2013-12-24,28.8,18.7,8.6,22.8,14.1,4.0,96,82,69,30.06,29.87,0,0,0,0.00
2013-12-25,26.2,10.6,-0.2,10.2,1.9,-6.7,82,68,44,30.28,30.05,0,0,0,0.00
2013-12-26,28.2,22.1,12.7,25.6,18.7,7.6,95,87,74,30.11,29.80,0,0,0,0.00
2013-12-27,36.1,27.9,25.0,26.3,22.8,19.6,92,81,65,29.96,29.87,0,0,0,0.00
2013-12-28,37.8,31.0,23.5,34.4,27.1,20.8,94,85,81,29.87,29.70,8,2,11,0.03
2013-12-29,37.4,33.3,30.0,35.1,31.4,28.7,99,93,81,29.72,29.31,11,4,13,0.73
2013-12-30,36.5,24.9,6.3,35.4,16.2,-2.9,99,71,42,29.95,29.31,9,2,16,0.05
2013-12-31,19.0,12.0,5.5,13.2,3.0,-3.9,87,67,55,29.94,29.72,7,2,11,0.00
2014-1-1,25.2,14.0,0.1,9.1,2.2,-10.3,73,59,43,30.17,29.85,13,4,18,0.00
2014-1-2,41.2,-3.8,-8.5,40.9,-11.5,-15.9,99,64,55,30.17,29.67,8,4,12,0.00